Time;durP1;ratioP1;P1;durP2;ratioP2;P2;SDS_P1;SDS_P2;PMS_P1;PMS_P2;Temp;Humidity;BMP_temperature;BMP_pressure;BME280_temperature;BME280_humidity;BME280_pressure;Samples;Min_cycle;Max_cycle;Signal;HPM_P1;HPM_P2
2021/09/23 00:00:55;;;;;;;0.00;0.00;;;;;;;11.71;57.43;99181.81;5011165;28;20080;-74
2021/09/23 00:06:06;;;;;;;0.10;0.10;;;;;;;11.66;57.20;99186.13;4993772;28;20069;-74
2021/09/23 00:08:32;;;;;;;0.00;0.00;;;;;;;11.68;57.62;99175.13;5014590;28;20049;-73
2021/09/23 00:10:57;;;;;;;0.00;0.00;;;;;;;11.65;57.66;99181.03;5015036;28;20018;-75
2021/09/23 00:13:27;;;;;;;0.00;0.00;;;;;;;11.62;57.36;99170.88;5014909;28;20095;-74
2021/09/23 00:15:53;;;;;;;0.32;0.32;;;;;;;11.67;57.80;99181.56;5014867;28;20026;-73
2021/09/23 00:18:19;;;;;;;0.00;0.00;;;;;;;11.64;57.12;99174.09;5015309;28;20130;-74
2021/09/23 00:20:48;;;;;;;0.00;0.00;;;;;;;11.65;57.72;99181.03;5034073;28;20105;-75
2021/09/23 00:23:15;;;;;;;0.00;0.00;;;;;;;11.61;57.40;99178.13;5033987;28;20464;-74
2021/09/23 00:25:40;;;;;;;0.00;0.00;;;;;;;11.59;57.35;99172.22;5033498;28;20502;-74
2021/09/23 00:28:08;;;;;;;0.00;0.00;;;;;;;11.60;57.30;99175.72;5034462;28;20108;-73
2021/09/23 00:30:34;;;;;;;0.57;0.25;;;;;;;11.58;57.90;99167.94;5034109;28;20465;-74
2021/09/23 00:33:00;;;;;;;0.40;0.40;;;;;;;11.57;57.57;99171.72;5034274;28;20021;-73
2021/09/23 00:35:25;;;;;;;0.20;0.20;;;;;;;11.56;57.96;99169.31;5034058;28;20035;-74
2021/09/23 00:37:52;;;;;;;0.40;0.40;;;;;;;11.55;57.88;99163.16;5034184;28;20029;-73
2021/09/23 00:40:18;;;;;;;0.00;0.00;;;;;;;11.53;57.82;99158.09;5019759;28;20105;-73
2021/09/23 00:42:47;;;;;;;0.10;0.10;;;;;;;11.57;57.91;99160.19;5014139;28;20064;-74
2021/09/23 00:45:13;;;;;;;0.00;0.00;;;;;;;11.55;57.67;99163.16;5014237;28;20026;-73
2021/09/23 00:47:39;;;;;;;0.00;0.00;;;;;;;11.55;57.99;99157.81;5014093;28;20642;-73
2021/09/23 00:50:06;;;;;;;0.00;0.00;;;;;;;11.57;57.81;99154.84;5014514;28;20025;-72
2021/09/23 00:52:32;;;;;;;0.30;0.30;;;;;;;11.56;58.15;99156.75;5014181;28;20421;-72
2021/09/23 00:54:58;;;;;;;0.00;0.00;;;;;;;11.59;57.50;99153.50;5014141;28;20057;-73
2021/09/23 00:57:24;;;;;;;0.10;0.10;;;;;;;11.62;57.33;99152.94;5013608;28;20400;-74
2021/09/23 00:59:51;;;;;;;0.28;0.28;;;;;;;11.59;58.02;99141.97;5014080;28;20495;-73
2021/09/23 01:02:17;;;;;;;0.10;0.10;;;;;;;11.60;57.80;99144.38;5014035;28;20029;-73
2021/09/23 01:04:44;;;;;;;0.35;0.35;;;;;;;11.58;57.85;99135.81;5013792;28;20313;-73
2021/09/23 01:07:13;;;;;;;0.00;0.00;;;;;;;11.60;57.69;99146.25;5013951;28;20018;-73
2021/09/23 01:09:50;;;;;;;0.00;0.00;;;;;;;11.58;57.77;99146.53;5013925;28;20018;-73
2021/09/23 01:12:17;;;;;;;0.08;0.08;;;;;;;11.58;57.82;99143.84;5013968;28;20033;-73
2021/09/23 01:14:43;;;;;;;0.03;0.03;;;;;;;11.54;57.79;99145.50;5012809;28;20030;-72
2021/09/23 01:17:09;;;;;;;0.00;0.00;;;;;;;11.53;57.87;99150.06;5013044;28;20374;-72
2021/09/23 01:19:36;;;;;;;0.45;0.45;;;;;;;11.53;57.90;99147.38;5013587;28;20050;-72
2021/09/23 01:22:01;;;;;;;0.00;0.00;;;;;;;11.50;58.21;99141.78;5013629;28;20034;-72
2021/09/23 01:24:27;;;;;;;0.00;0.00;;;;;;;11.46;57.51;99144.22;5013368;28;20044;-72
2021/09/23 01:26:55;;;;;;;0.20;0.20;;;;;;;11.48;58.40;99147.41;5013509;28;20087;-72
2021/09/23 01:29:24;;;;;;;0.00;0.00;;;;;;;11.52;58.44;99144.97;5018892;28;20384;-72
2021/09/23 01:31:51;;;;;;;0.08;0.08;;;;;;;11.50;58.10;99150.63;5032806;28;20539;-73
2021/09/23 01:34:17;;;;;;;0.00;0.00;;;;;;;11.50;58.05;99150.63;5029617;28;20060;-76
2021/09/23 01:36:42;;;;;;;0.10;0.10;;;;;;;11.47;58.52;99147.69;5012842;28;20028;-72
2021/09/23 01:39:08;;;;;;;0.30;0.30;;;;;;;11.51;57.78;99146.84;5013292;28;20030;-72
2021/09/23 01:41:34;;;;;;;0.10;0.10;;;;;;;11.49;58.53;99148.22;5012996;28;20424;-72
2021/09/23 01:44:00;;;;;;;0.03;0.03;;;;;;;11.46;58.63;99141.53;5013417;28;20032;-73
2021/09/23 01:46:25;;;;;;;0.57;0.35;;;;;;;11.47;58.73;99145.81;5029935;28;20025;-74
2021/09/23 01:48:51;;;;;;;0.20;0.20;;;;;;;11.45;58.23;99147.16;5025948;28;20087;-75
2021/09/23 01:51:16;;;;;;;0.22;0.22;;;;;;;11.50;58.55;99149.81;5030147;28;20021;-75
2021/09/23 01:53:42;;;;;;;0.00;0.00;;;;;;;11.49;58.14;99145.53;5032238;28;20030;-73
2021/09/23 01:56:07;;;;;;;0.10;0.10;;;;;;;11.45;58.50;99149.84;5032768;28;20434;-74
2021/09/23 01:58:33;;;;;;;0.00;0.00;;;;;;;11.49;58.31;99148.22;5032424;28;20048;-74
2021/09/23 02:00:59;;;;;;;0.00;0.00;;;;;;;11.46;58.25;99141.53;5024434;28;20600;-74
2021/09/23 02:03:24;;;;;;;0.55;0.55;;;;;;;11.43;58.65;99152.00;5027180;28;20018;-74
2021/09/23 02:05:50;;;;;;;0.00;0.00;;;;;;;11.41;58.74;99143.44;5029305;28;20029;-73
2021/09/23 02:08:15;;;;;;;0.20;0.20;;;;;;;11.41;58.22;99143.44;5012792;28;20104;-74
2021/09/23 02:10:41;;;;;;;0.03;0.03;;;;;;;11.38;58.73;99148.28;5012497;28;20368;-74
2021/09/23 02:13:06;;;;;;;0.08;0.08;;;;;;;11.30;58.37;99146.22;5012733;28;20057;-75
2021/09/23 02:15:31;;;;;;;0.08;0.08;;;;;;;11.31;58.68;99153.13;5012113;28;20029;-73
2021/09/23 02:17:57;;;;;;;0.22;0.22;;;;;;;11.29;58.81;99152.63;5012666;28;20050;-73
2021/09/23 02:20:22;;;;;;;0.08;0.08;;;;;;;11.30;59.06;99150.75;5026938;28;20025;-73
2021/09/23 02:22:48;;;;;;;0.45;0.30;;;;;;;11.26;58.56;99152.41;5031753;28;20378;-73
2021/09/23 02:25:14;;;;;;;0.00;0.00;;;;;;;11.29;59.36;99149.16;5032240;28;20022;-73
2021/09/23 02:27:40;;;;;;;0.28;0.28;;;;;;;11.27;59.08;99152.09;5030665;28;20032;-73
2021/09/23 02:30:07;;;;;;;0.00;0.00;;;;;;;11.25;59.08;99156.94;5031793;28;20021;-72
2021/09/23 02:32:33;;;;;;;0.10;0.10;;;;;;;11.21;59.52;99153.22;5031142;28;20531;-74
2021/09/23 02:34:59;;;;;;;0.10;0.10;;;;;;;11.18;59.35;99151.91;5022049;28;20030;-73
2021/09/23 02:37:25;;;;;;;0.00;0.00;;;;;;;11.16;59.97;99158.63;5012231;28;20380;-74
2021/09/23 02:39:51;;;;;;;0.00;0.00;;;;;;;11.14;59.88;99155.41;5023605;28;20082;-74
2021/09/23 02:42:17;;;;;;;0.00;0.00;;;;;;;11.12;59.84;99154.88;5031998;28;20108;-72
2021/09/23 02:44:42;;;;;;;0.00;0.00;;;;;;;11.07;59.37;99150.38;5031324;28;20614;-73
2021/09/23 02:47:08;;;;;;;0.10;0.10;;;;;;;11.01;60.23;99141.56;5032076;28;20025;-76
2021/09/23 02:49:33;;;;;;;0.90;0.35;;;;;;;11.01;59.84;99138.06;5027670;28;20094;-75
2021/09/23 02:51:59;;;;;;;0.35;0.35;;;;;;;10.99;60.39;99146.38;5012165;28;20030;-75
2021/09/23 02:54:25;;;;;;;0.22;0.22;;;;;;;10.95;60.02;99140.00;5015919;28;20025;-75
2021/09/23 02:56:51;;;;;;;0.40;0.40;;;;;;;10.95;60.51;99144.53;5011537;28;20018;-75
2021/09/23 02:59:16;;;;;;;0.03;0.03;;;;;;;10.91;60.38;99149.63;5011613;28;20029;-75
2021/09/23 03:01:42;;;;;;;0.10;0.10;;;;;;;10.88;60.11;99152.88;5011595;28;20047;-75
2021/09/23 03:04:07;;;;;;;0.00;0.00;;;;;;;10.84;60.37;99157.16;5011771;28;20082;-74
2021/09/23 03:06:33;;;;;;;0.10;0.10;;;;;;;10.78;61.02;99161.75;5028594;28;20495;-75
2021/09/23 03:08:59;;;;;;;0.00;0.00;;;;;;;10.76;61.01;99163.88;5031236;28;20100;-75
2021/09/23 03:11:25;;;;;;;0.80;0.80;;;;;;;10.73;61.10;99161.78;5022219;28;20481;-75
2021/09/23 03:13:51;;;;;;;1.75;0.40;;;;;;;10.72;60.93;99160.94;5010189;28;20038;-75
2021/09/23 03:16:16;;;;;;;0.00;0.00;;;;;;;10.70;61.48;99159.63;5011686;28;20021;-74
2021/09/23 03:18:42;;;;;;;0.00;0.00;;;;;;;10.62;61.45;99162.84;5011384;28;20046;-77
2021/09/23 03:21:07;;;;;;;0.05;0.05;;;;;;;10.60;61.41;99163.13;5011865;28;20025;-74
2021/09/23 03:23:33;;;;;;;0.43;0.43;;;;;;;10.58;61.70;99165.28;5011067;28;20392;-74
2021/09/23 03:25:58;;;;;;;0.20;0.20;;;;;;;10.58;61.39;99167.94;5011480;28;20472;-76
2021/09/23 03:28:25;;;;;;;0.38;0.38;;;;;;;10.57;61.86;99161.81;5009889;28;20026;-74
2021/09/23 03:30:50;;;;;;;0.00;0.00;;;;;;;10.57;61.78;99163.69;5011286;28;20151;-75
2021/09/23 03:33:15;;;;;;;0.00;0.00;;;;;;;10.57;61.75;99156.47;5021886;28;20021;-75
2021/09/23 03:35:41;;;;;;;0.80;0.63;;;;;;;10.56;61.31;99148.72;5015971;28;20025;-74
2021/09/23 03:38:08;;;;;;;0.00;0.00;;;;;;;10.57;61.64;99153.00;5011032;28;20022;-75
2021/09/23 03:40:34;;;;;;;0.30;0.30;;;;;;;10.56;61.89;99159.41;5010964;28;20103;-74
2021/09/23 03:42:59;;;;;;;0.43;0.30;;;;;;;10.52;61.88;99161.03;5011359;28;20444;-74
2021/09/23 03:45:25;;;;;;;0.15;0.15;;;;;;;10.47;62.08;99161.03;5014140;28;20022;-74
2021/09/23 03:47:50;;;;;;;0.35;0.35;;;;;;;10.41;62.20;99158.41;5011760;28;20060;-74
2021/09/23 03:50:16;;;;;;;0.80;0.77;;;;;;;10.41;61.79;99166.41;5011251;28;20072;-75
2021/09/23 03:52:43;;;;;;;0.20;0.20;;;;;;;10.39;61.96;99170.44;5011217;28;20030;-73
2021/09/23 03:55:10;;;;;;;0.10;0.10;;;;;;;10.37;62.79;99180.59;5011258;28;20425;-73
2021/09/23 03:57:35;;;;;;;0.05;0.05;;;;;;;10.35;62.59;99180.84;5010884;28;20116;-75
2021/09/23 04:00:00;;;;;;;0.00;0.00;;;;;;;10.27;62.81;99170.69;5009989;28;20565;-75
2021/09/23 04:02:26;;;;;;;0.00;0.00;;;;;;;10.27;62.75;99176.03;5010865;28;20033;-75
2021/09/23 04:04:51;;;;;;;0.20;0.20;;;;;;;10.28;63.05;99180.31;5010538;28;20472;-74
2021/09/23 04:07:17;;;;;;;0.22;0.22;;;;;;;10.25;62.87;99178.16;5023113;28;20388;-78
2021/09/23 04:09:42;;;;;;;0.10;0.10;;;;;;;10.29;62.77;99186.44;5026010;28;20547;-76
2021/09/23 04:12:08;;;;;;;0.20;0.20;;;;;;;10.26;62.70;99179.78;5011092;28;20108;-75
2021/09/23 04:14:34;;;;;;;0.20;0.20;;;;;;;10.26;62.92;99185.13;5011135;28;20029;-75
2021/09/23 04:17:00;;;;;;;0.00;0.00;;;;;;;10.27;62.93;99181.38;5025406;28;20033;-76
2021/09/23 04:19:25;;;;;;;0.22;0.22;;;;;;;10.31;63.01;99187.78;5029963;28;20091;-76
2021/09/23 04:21:51;;;;;;;0.80;0.63;;;;;;;10.39;62.06;99191.81;5020194;28;20052;-76
2021/09/23 04:24:17;;;;;;;1.00;0.32;;;;;;;10.45;62.17;99189.91;5015728;28;20090;-74
2021/09/23 04:26:43;;;;;;;0.10;0.10;;;;;;;10.57;61.86;99188.56;5017304;28;20025;-75
2021/09/23 04:29:08;;;;;;;0.03;0.03;;;;;;;10.75;61.51;99190.91;5019838;28;20036;-76
2021/09/23 04:31:34;;;;;;;0.45;0.45;;;;;;;10.95;60.63;99190.84;5019550;28;20076;-75
2021/09/23 04:33:59;;;;;;;0.00;0.00;;;;;;;11.17;60.31;99197.69;5013666;28;20029;-75
2021/09/23 04:36:25;;;;;;;0.20;0.20;;;;;;;11.40;59.63;99198.09;5022020;28;20096;-75
2021/09/23 04:38:50;;;;;;;0.00;0.00;;;;;;;11.62;58.87;99198.47;5030110;28;20160;-74
2021/09/23 04:41:16;;;;;;;0.10;0.10;;;;;;;11.90;58.46;99203.34;5030191;28;20375;-74
2021/09/23 04:43:42;;;;;;;0.50;0.50;;;;;;;12.14;56.93;99200.75;5029498;28;20025;-75
2021/09/23 04:46:08;;;;;;;0.00;0.00;;;;;;;12.34;56.34;99199.78;5030001;28;20021;-75
2021/09/23 04:48:34;;;;;;;0.47;0.47;;;;;;;12.59;56.72;99209.44;5030198;28;20035;-75
2021/09/23 04:51:00;;;;;;;1.17;0.63;;;;;;;12.78;55.92;99206.81;5033088;28;20427;-74
2021/09/23 04:53:25;;;;;;;0.43;0.22;;;;;;;12.98;54.93;99204.97;5032580;28;20021;-74
2021/09/23 04:55:51;;;;;;;0.25;0.25;;;;;;;13.24;54.33;99207.31;5033618;28;20392;-75
2021/09/23 04:58:16;;;;;;;0.00;0.00;;;;;;;13.48;54.05;99215.34;5032514;28;20061;-75
2021/09/23 05:00:43;;;;;;;0.20;0.20;;;;;;;13.77;52.95;99220.53;5033535;28;20021;-75
2021/09/23 05:03:10;;;;;;;0.10;0.10;;;;;;;13.98;51.49;99220.22;5033755;28;20108;-75
2021/09/23 05:05:36;;;;;;;0.20;0.20;;;;;;;14.15;51.91;99218.88;5033113;28;20026;-75
2021/09/23 05:08:01;;;;;;;0.45;0.45;;;;;;;14.35;51.04;99215.03;5032119;28;20028;-75
2021/09/23 05:10:27;;;;;;;0.10;0.10;;;;;;;14.48;50.35;99218.84;5033363;28;20030;-75
2021/09/23 05:12:52;;;;;;;0.55;0.40;;;;;;;14.62;49.43;99222.31;5032997;28;20472;-75
2021/09/23 05:15:18;;;;;;;0.10;0.10;;;;;;;14.71;49.77;99222.47;5033174;28;20037;-74
2021/09/23 05:17:43;;;;;;;0.28;0.28;;;;;;;14.84;49.60;99227.06;5033149;28;20128;-75
2021/09/23 05:20:09;;;;;;;0.13;0.13;;;;;;;14.99;49.25;99230.50;5033203;28;20104;-75
2021/09/23 05:22:35;;;;;;;0.10;0.10;;;;;;;15.00;48.65;99230.22;5033066;28;20476;-75
2021/09/23 05:25:01;;;;;;;0.20;0.20;;;;;;;15.15;48.75;99241.78;5033067;28;20043;-75
2021/09/23 05:27:26;;;;;;;0.10;0.10;;;;;;;15.25;48.12;99240.78;5033054;28;20021;-75
2021/09/23 05:29:52;;;;;;;0.10;0.10;;;;;;;15.31;48.07;99245.75;5032993;28;20029;-75
2021/09/23 05:32:17;;;;;;;2.60;0.73;;;;;;;15.47;48.24;99246.22;5033138;28;20075;-75
2021/09/23 05:34:43;;;;;;;0.28;0.28;;;;;;;15.50;47.89;99253.69;5032835;28;20115;-75
2021/09/23 05:37:09;;;;;;;0.10;0.10;;;;;;;15.59;47.96;99256.47;5033453;28;20025;-75
2021/09/23 05:39:35;;;;;;;0.10;0.10;;;;;;;15.57;47.55;99255.19;5033283;28;20094;-75
2021/09/23 05:42:02;;;;;;;0.10;0.10;;;;;;;15.55;47.58;99263.56;5032832;28;20025;-74
2021/09/23 05:44:28;;;;;;;0.40;0.40;;;;;;;15.61;47.57;99254.28;5032927;28;20021;-74
2021/09/23 05:46:54;;;;;;;0.25;0.25;;;;;;;15.68;47.36;99256.53;5032376;28;20021;-74
2021/09/23 05:49:21;;;;;;;0.00;0.00;;;;;;;15.71;47.38;99255.13;5032927;28;20558;-74
2021/09/23 05:51:47;;;;;;;0.00;0.00;;;;;;;15.76;47.29;99249.59;5032619;28;20029;-74
2021/09/23 05:54:13;;;;;;;0.35;0.35;;;;;;;15.75;47.06;99258.81;5032489;28;20425;-74
2021/09/23 05:56:39;;;;;;;2.28;0.30;;;;;;;15.75;47.31;99261.53;5032993;28;20104;-74
2021/09/23 05:59:04;;;;;;;0.22;0.22;;;;;;;15.78;47.08;99268.97;5032639;28;20022;-74
2021/09/23 06:01:30;;;;;;;0.10;0.10;;;;;;;15.72;47.47;99271.00;5032366;28;20079;-74
2021/09/23 06:03:55;;;;;;;0.28;0.28;;;;;;;15.71;47.24;99276.69;5032028;28;20116;-75
2021/09/23 06:06:21;;;;;;;0.20;0.20;;;;;;;15.74;46.89;99279.56;5032559;28;20017;-75
2021/09/23 06:08:46;;;;;;;0.10;0.10;;;;;;;15.66;47.86;99280.28;5032624;28;20537;-75
2021/09/23 06:11:12;;;;;;;0.28;0.28;;;;;;;15.73;47.74;99286.06;5031137;28;20100;-75
2021/09/23 06:13:38;;;;;;;0.08;0.08;;;;;;;15.74;47.48;99293.06;5032477;28;20079;-75
2021/09/23 06:16:04;;;;;;;0.00;0.00;;;;;;;15.74;47.45;99284.19;5032207;28;20026;-75
2021/09/23 06:18:29;;;;;;;0.13;0.13;;;;;;;15.74;47.19;99295.75;5032351;28;20068;-75
2021/09/23 06:20:55;;;;;;;0.38;0.38;;;;;;;15.71;47.63;99292.88;5032156;28;20388;-74
2021/09/23 06:23:20;;;;;;;0.45;0.45;;;;;;;15.65;47.37;99284.13;5032241;28;20036;-74
2021/09/23 06:25:46;;;;;;;0.08;0.08;;;;;;;15.63;47.58;99291.69;5031572;28;20021;-73
2021/09/23 06:28:11;;;;;;;0.00;0.00;;;;;;;15.68;47.94;99294.28;5032498;28;20060;-74
2021/09/23 06:30:38;;;;;;;0.17;0.17;;;;;;;15.71;47.68;99293.69;5032114;28;20100;-74
2021/09/23 06:33:04;;;;;;;0.20;0.20;;;;;;;15.78;48.04;99304.03;5031861;28;20033;-74
2021/09/23 06:35:30;;;;;;;0.30;0.30;;;;;;;15.87;47.73;99298.75;5032057;28;20028;-74
2021/09/23 06:37:55;;;;;;;0.10;0.10;;;;;;;15.96;47.08;99311.19;5031792;28;20026;-74
2021/09/23 06:40:21;;;;;;;0.15;0.15;;;;;;;15.98;47.14;99303.59;5031662;28;20017;-74
2021/09/23 06:42:47;;;;;;;0.95;0.80;;;;;;;16.00;47.14;99308.69;5030126;28;20025;-74
2021/09/23 06:45:13;;;;;;;0.10;0.10;;;;;;;15.96;46.95;99302.31;5031760;28;20065;-74
2021/09/23 06:47:39;;;;;;;0.65;0.65;;;;;;;15.97;47.31;99314.69;5031852;28;20057;-74
2021/09/23 06:50:05;;;;;;;0.10;0.10;;;;;;;15.98;47.23;99305.50;5030234;28;20496;-74
2021/09/23 06:52:31;;;;;;;0.30;0.30;;;;;;;15.99;47.15;99307.09;5030372;28;20029;-74
2021/09/23 06:54:56;;;;;;;0.32;0.32;;;;;;;15.98;47.16;99309.00;5031499;28;20021;-74
2021/09/23 06:57:22;;;;;;;0.28;0.28;;;;;;;15.92;47.55;99304.03;5031537;28;20027;-74
2021/09/23 06:59:47;;;;;;;0.20;0.20;;;;;;;15.96;46.95;99303.09;5031411;28;20076;-74
2021/09/23 07:02:13;;;;;;;0.38;0.38;;;;;;;15.99;47.20;99305.19;5031574;28;20112;-75
2021/09/23 07:04:38;;;;;;;0.17;0.17;;;;;;;15.99;47.16;99307.09;5031399;28;20025;-73
2021/09/23 07:07:04;;;;;;;0.20;0.20;;;;;;;16.05;46.98;99305.06;5031057;28;20022;-76
2021/09/23 07:09:29;;;;;;;0.10;0.10;;;;;;;16.06;46.65;99299.38;5031729;28;20025;-75
2021/09/23 07:11:56;;;;;;;0.73;0.73;;;;;;;16.10;46.76;99297.66;5030915;28;20112;-76
2021/09/23 07:14:22;;;;;;;0.85;0.55;;;;;;;16.16;46.24;99309.13;5031081;28;20486;-76
2021/09/23 07:16:47;;;;;;;0.60;0.60;;;;;;;16.24;45.80;99308.38;5030888;28;20052;-75
2021/09/23 07:19:13;;;;;;;0.10;0.10;;;;;;;16.30;45.85;99309.84;5031388;28;20045;-76
2021/09/23 07:21:39;;;;;;;0.10;0.10;;;;;;;16.41;45.02;99310.41;5031625;28;20026;-76
2021/09/23 07:24:05;;;;;;;0.10;0.10;;;;;;;16.44;45.01;99312.50;5031004;28;20072;-76
2021/09/23 07:26:31;;;;;;;0.68;0.68;;;;;;;16.47;45.24;99314.56;5029877;28;20411;-76
2021/09/23 07:28:58;;;;;;;0.63;0.63;;;;;;;16.42;45.39;99303.91;5031005;28;20460;-75
2021/09/23 07:31:24;;;;;;;0.10;0.10;;;;;;;16.49;45.34;99314.28;5031202;28;20033;-76
2021/09/23 07:33:50;;;;;;;0.57;0.57;;;;;;;16.55;45.11;99317.63;5030916;28;20083;-75
2021/09/23 07:36:16;;;;;;;0.10;0.10;;;;;;;16.61;44.71;99311.81;5031068;28;20542;-75
2021/09/23 07:38:42;;;;;;;0.43;0.43;;;;;;;16.60;44.83;99312.91;5030854;28;20027;-76
2021/09/23 07:41:07;;;;;;;0.43;0.43;;;;;;;16.65;44.83;99312.75;5030588;28;20018;-76
2021/09/23 07:43:33;;;;;;;0.00;0.00;;;;;;;16.67;45.32;99319.75;5029734;28;20081;-76
2021/09/23 07:45:58;;;;;;;0.47;0.47;;;;;;;16.70;45.44;99317.25;5030514;28;20020;-75
2021/09/23 07:48:23;;;;;;;0.10;0.10;;;;;;;16.74;45.35;99314.72;5031269;28;20033;-75
2021/09/23 07:50:49;;;;;;;0.10;0.10;;;;;;;16.83;43.67;99315.53;5030862;28;20076;-76
2021/09/23 07:53:15;;;;;;;0.10;0.10;;;;;;;16.86;43.03;99311.44;5031013;28;20040;-75
2021/09/23 07:55:40;;;;;;;0.10;0.10;;;;;;;16.93;43.11;99312.59;5030649;28;20053;-75
2021/09/23 07:58:06;;;;;;;0.25;0.25;;;;;;;16.97;43.31;99312.78;5030631;28;20449;-75
2021/09/23 08:00:31;;;;;;;0.10;0.10;;;;;;;17.06;42.09;99312.81;5030863;28;20021;-75
2021/09/23 08:02:56;;;;;;;0.00;0.00;;;;;;;17.12;41.99;99300.75;5030748;28;20621;-75
2021/09/23 08:05:22;;;;;;;0.20;0.20;;;;;;;17.20;41.64;99301.88;5030726;28;20044;-76
2021/09/23 08:07:49;;;;;;;0.10;0.10;;;;;;;17.19;41.80;99303.78;5030482;28;20075;-75
2021/09/23 08:10:15;;;;;;;0.00;0.00;;;;;;;17.19;42.62;99289.50;5030850;28;20022;-75
2021/09/23 08:12:41;;;;;;;0.10;0.10;;;;;;;17.23;42.61;99285.03;5030801;28;20480;-75
2021/09/23 08:15:06;;;;;;;0.10;0.10;;;;;;;17.37;42.93;99293.00;5030587;28;20031;-75
2021/09/23 08:17:32;;;;;;;2.40;0.65;;;;;;;17.41;42.56;99283.19;5030455;28;20021;-75
2021/09/23 08:19:57;;;;;;;0.00;0.00;;;;;;;17.47;41.18;99281.09;5030527;28;20376;-75
2021/09/23 08:22:23;;;;;;;0.10;0.10;;;;;;;17.48;41.23;99294.31;5030741;28;20447;-75
2021/09/23 08:24:48;;;;;;;0.10;0.10;;;;;;;17.43;40.96;99297.16;5032816;28;20353;-75
2021/09/23 08:27:14;;;;;;;0.10;0.10;;;;;;;17.38;40.91;99290.00;5034660;28;20503;-75
2021/09/23 08:29:40;;;;;;;0.10;0.10;;;;;;;17.29;41.32;99289.19;5034415;28;20026;-75
2021/09/23 08:32:05;;;;;;;0.00;0.00;;;;;;;17.21;41.19;99290.78;5034196;28;20492;-75
2021/09/23 08:34:31;;;;;;;0.20;0.20;;;;;;;17.24;42.01;99298.25;5034309;28;20030;-75
2021/09/23 08:36:57;;;;;;;2.05;0.35;;;;;;;17.34;41.98;99290.97;5034075;28;20057;-76
2021/09/23 08:39:22;;;;;;;0.20;0.20;;;;;;;17.37;41.91;99282.19;5034104;28;20029;-76
2021/09/23 08:41:49;;;;;;;0.20;0.20;;;;;;;17.51;40.85;99290.19;5033950;28;20018;-75
2021/09/23 08:44:15;;;;;;;0.00;0.00;;;;;;;17.57;40.93;99286.22;5033768;28;20411;-76
2021/09/23 08:46:42;;;;;;;0.10;0.10;;;;;;;17.59;41.07;99286.72;5034431;28;20037;-75
2021/09/23 08:49:08;;;;;;;0.38;0.20;;;;;;;17.57;40.87;99280.81;5033893;28;20151;-75
2021/09/23 08:51:36;;;;;;;0.00;0.00;;;;;;;17.53;40.83;99279.88;5033983;28;20037;-75
2021/09/23 08:54:02;;;;;;;0.20;0.20;;;;;;;17.50;40.56;99275.84;5033879;28;20018;-75
2021/09/23 08:56:27;;;;;;;0.25;0.25;;;;;;;17.52;40.37;99267.44;5034195;28;20049;-75
2021/09/23 08:58:53;;;;;;;0.20;0.20;;;;;;;17.55;40.35;99269.50;5033557;28;20096;-75
2021/09/23 09:01:20;;;;;;;0.30;0.30;;;;;;;17.53;39.86;99256.31;5033857;28;20095;-75
2021/09/23 09:03:46;;;;;;;0.10;0.10;;;;;;;17.55;39.94;99264.09;5033748;28;20040;-75
2021/09/23 09:06:13;;;;;;;0.10;0.10;;;;;;;17.56;40.25;99263.00;5033535;28;20028;-76
2021/09/23 09:08:41;;;;;;;0.00;0.00;;;;;;;17.64;39.91;99261.41;5033739;28;20499;-75
2021/09/23 09:11:08;;;;;;;0.10;0.10;;;;;;;17.69;39.25;99256.63;5033690;28;20032;-75
2021/09/23 09:13:40;;;;;;;0.20;0.20;;;;;;;17.72;39.13;99266.00;5033526;28;20028;-75
2021/09/23 09:16:11;;;;;;;0.20;0.20;;;;;;;17.76;39.00;99272.41;5033202;28;20044;-75
2021/09/23 09:18:37;;;;;;;0.20;0.20;;;;;;;17.83;38.69;99264.56;5033395;28;20055;-75
2021/09/23 09:21:03;;;;;;;0.10;0.10;;;;;;;17.95;37.83;99265.88;5033286;28;20013;-75
2021/09/23 09:23:40;;;;;;;0.10;0.10;;;;;;;17.93;37.49;99275.09;5033522;28;20100;-75
2021/09/23 09:26:07;;;;;;;0.10;0.10;;;;;;;17.86;37.70;99263.16;5033216;28;20030;-75
2021/09/23 09:28:43;;;;;;;0.13;0.13;;;;;;;17.86;38.15;99257.75;5033007;28;20546;-75
2021/09/23 09:31:08;;;;;;;0.10;0.10;;;;;;;17.96;37.92;99256.66;5032904;28;20088;-75
2021/09/23 09:33:36;;;;;;;0.10;0.10;;;;;;;17.98;37.56;99257.94;5032925;28;20428;-75
2021/09/23 09:36:02;;;;;;;0.10;0.10;;;;;;;17.96;37.89;99249.31;5032347;28;20712;-75
2021/09/23 09:38:28;;;;;;;0.10;0.10;;;;;;;18.01;38.06;99249.16;5032721;28;20021;-75
2021/09/23 09:40:55;;;;;;;0.25;0.25;;;;;;;18.06;37.79;99254.41;5032518;28;20017;-75
2021/09/23 09:43:21;;;;;;;0.10;0.10;;;;;;;18.07;37.86;99257.91;5033048;28;20091;-75
2021/09/23 09:45:48;;;;;;;0.10;0.10;;;;;;;18.05;36.94;99257.44;5032920;28;20021;-75
2021/09/23 09:48:14;;;;;;;0.10;0.10;;;;;;;18.03;37.57;99252.34;5032801;28;20469;-75
2021/09/23 09:50:43;;;;;;;0.10;0.10;;;;;;;18.07;37.86;99253.28;5032595;28;20083;-75
2021/09/23 09:53:12;;;;;;;0.10;0.10;;;;;;;18.18;37.21;99256.44;5032342;28;20064;-75
2021/09/23 09:55:41;;;;;;;0.10;0.10;;;;;;;18.24;37.28;99255.16;5032800;28;20021;-75
2021/09/23 09:58:08;;;;;;;0.00;0.00;;;;;;;18.36;37.41;99249.09;5032157;28;20366;-76
2021/09/23 10:00:35;;;;;;;0.10;0.10;;;;;;;18.41;36.89;99248.13;5032689;28;20083;-75
2021/09/23 10:03:01;;;;;;;0.10;0.10;;;;;;;18.42;36.67;99251.63;5032481;28;20108;-75
2021/09/23 10:05:28;;;;;;;0.10;0.10;;;;;;;18.40;36.03;99255.44;5032429;28;20021;-75
2021/09/23 10:07:56;;;;;;;0.13;0.13;;;;;;;18.39;36.14;99253.88;5032097;28;20033;-76
2021/09/23 10:10:28;;;;;;;0.10;0.10;;;;;;;18.42;35.95;99255.13;5032201;28;20040;-75
2021/09/23 10:12:59;;;;;;;0.30;0.30;;;;;;;18.47;35.39;99240.59;5031862;28;20511;-74
2021/09/23 10:15:26;;;;;;;0.10;0.10;;;;;;;18.54;34.92;99240.91;5032109;28;20388;-74
2021/09/23 10:17:54;;;;;;;0.30;0.30;;;;;;;18.65;35.28;99244.03;5031943;28;20080;-76
2021/09/23 10:20:23;;;;;;;0.55;0.55;;;;;;;18.70;35.34;99249.28;5032324;28;20021;-77
2021/09/23 10:22:49;;;;;;;0.10;0.10;;;;;;;18.71;34.87;99253.56;5031934;28;20384;-75
2021/09/23 10:25:21;;;;;;;0.00;0.00;;;;;;;18.68;34.96;99257.72;5031875;28;20022;-75
2021/09/23 10:28:04;;;;;;;0.20;0.20;;;;;;;18.65;34.42;99236.72;5032083;28;20460;-75
2021/09/23 10:30:33;;;;;;;0.10;0.10;;;;;;;18.70;34.48;99244.66;5031867;28;20014;-75
2021/09/23 10:33:01;;;;;;;0.00;0.00;;;;;;;18.73;34.11;99241.28;5031498;28;20041;-75
2021/09/23 10:35:29;;;;;;;0.10;0.10;;;;;;;18.80;34.40;99240.03;5032136;28;20025;-75
2021/09/23 10:37:57;;;;;;;0.15;0.15;;;;;;;18.87;34.34;99234.84;5031829;28;20041;-75
2021/09/23 10:40:22;;;;;;;0.10;0.10;;;;;;;18.95;34.24;99231.34;5031974;28;20114;-74
2021/09/23 10:42:50;;;;;;;0.10;0.10;;;;;;;18.94;33.84;99235.16;5031917;28;20060;-75
2021/09/23 10:45:25;;;;;;;0.10;0.10;;;;;;;18.86;34.05;99239.50;5031594;28;20030;-75
2021/09/23 10:47:58;;;;;;;0.10;0.10;;;;;;;18.86;34.47;99236.00;5030008;28;20052;-75
2021/09/23 10:50:29;;;;;;;0.47;0.47;;;;;;;18.91;34.17;99235.00;5031739;28;20048;-76
2021/09/23 10:52:57;;;;;;;0.20;0.20;;;;;;;18.89;34.33;99240.75;5031506;28;20036;-75
2021/09/23 10:55:24;;;;;;;0.00;0.00;;;;;;;18.97;34.25;99244.56;5031788;28;20040;-75
2021/09/23 10:57:52;;;;;;;0.10;0.10;;;;;;;19.03;33.88;99241.34;5031557;28;20029;-75
2021/09/23 11:00:25;;;;;;;0.10;0.10;;;;;;;19.12;33.25;99252.13;5031283;28;20017;-75
2021/09/23 11:02:53;;;;;;;0.10;0.10;;;;;;;19.16;32.70;99239.53;5031547;28;20029;-76
2021/09/23 11:05:20;;;;;;;0.00;0.00;;;;;;;19.26;33.36;99241.06;5031391;28;20387;-76
2021/09/23 11:07:47;;;;;;;0.20;0.20;;;;;;;19.30;32.97;99241.97;5031160;28;20083;-76
2021/09/23 11:10:17;;;;;;;0.10;0.10;;;;;;;19.35;33.11;99239.06;5031022;28;20484;-76
2021/09/23 11:12:45;;;;;;;0.10;0.10;;;;;;;19.36;32.89;99227.09;5031428;28;20067;-75
2021/09/23 11:15:15;;;;;;;0.20;0.20;;;;;;;19.47;33.07;99235.63;5031235;28;20021;-76
2021/09/23 11:17:41;;;;;;;0.25;0.25;;;;;;;19.50;33.12;99223.34;5031250;28;20046;-76
2021/09/23 11:20:33;;;;;;;0.08;0.08;;;;;;;19.58;32.85;99230.63;5031192;28;20021;-76
2021/09/23 11:23:02;;;;;;;0.03;0.03;;;;;;;19.62;32.73;99220.66;5028269;28;20045;-76
2021/09/23 11:25:31;;;;;;;0.00;0.00;;;;;;;19.71;32.56;99212.44;5031326;28;20084;-76
2021/09/23 11:27:57;;;;;;;0.40;0.40;;;;;;;19.82;32.44;99218.25;5031211;28;20029;-76
2021/09/23 11:30:25;;;;;;;0.00;0.00;;;;;;;19.91;32.01;99223.63;5031395;28;20465;-76
2021/09/23 11:32:52;;;;;;;0.00;0.00;;;;;;;19.98;32.35;99213.03;5031187;28;20112;-76